Time;durP1;ratioP1;P1;durP2;ratioP2;P2;SDS_P1;SDS_P2;PMS_P1;PMS_P2;Temp;Humidity;BMP_temperature;BMP_pressure;BME280_temperature;BME280_humidity;BME280_pressure;Samples;Min_cycle;Max_cycle;Signal;HPM_P1;HPM_P2
2023/06/09 00:00:29;;;;;;;4.80;2.90;;;;;;;16.86;57.92;94612.25;5085858;28;20029;-76
2023/06/09 00:02:55;;;;;;;8.15;3.33;;;;;;;16.82;58.19;94609.13;5072817;28;20051;-75
2023/06/09 00:05:20;;;;;;;4.55;2.67;;;;;;;16.61;58.79;94608.88;5071325;28;20505;-75
2023/06/09 00:07:47;;;;;;;4.47;2.80;;;;;;;16.40;59.32;94602.34;5073426;28;20052;-75
2023/06/09 00:10:17;;;;;;;5.00;3.20;;;;;;;16.54;58.58;94612.16;5070213;28;20049;-76
2023/06/09 00:12:42;;;;;;;7.10;2.70;;;;;;;16.44;59.20;94615.97;5065578;28;20114;-75
2023/06/09 00:15:11;;;;;;;3.85;2.97;;;;;;;16.42;59.36;94610.88;5072823;28;20047;-75
2023/06/09 00:17:39;;;;;;;3.85;3.00;;;;;;;16.39;59.30;94613.84;5071607;28;20036;-75
2023/06/09 00:20:08;;;;;;;3.70;2.85;;;;;;;16.42;59.08;94617.94;5072703;28;20039;-75
2023/06/09 00:22:35;;;;;;;4.10;2.70;;;;;;;16.31;59.24;94611.25;5055806;28;20036;-75
2023/06/09 00:25:01;;;;;;;4.82;2.88;;;;;;;16.39;58.97;94616.47;5073341;28;20086;-75
2023/06/09 00:27:26;;;;;;;3.83;2.70;;;;;;;16.35;58.80;94617.75;5072173;28;20032;-75
2023/06/09 00:29:52;;;;;;;4.00;2.70;;;;;;;16.21;59.01;94611.41;5071296;28;20120;-75
2023/06/09 00:32:17;;;;;;;3.70;2.80;;;;;;;16.15;58.98;94608.63;5073276;28;20052;-75
2023/06/09 00:34:43;;;;;;;4.25;2.67;;;;;;;16.36;58.32;94611.56;5073357;28;20036;-75
2023/06/09 00:37:09;;;;;;;4.28;2.53;;;;;;;16.22;58.61;94604.38;5087306;28;20031;-75
2023/06/09 00:39:34;;;;;;;3.80;2.75;;;;;;;16.40;58.46;94615.47;5087955;28;20052;-75
2023/06/09 00:42:00;;;;;;;4.55;2.80;;;;;;;16.28;58.50;94614.19;5072431;28;20029;-75
2023/06/09 00:44:25;;;;;;;5.57;3.10;;;;;;;16.27;57.95;94605.53;5081317;28;20464;-75
2023/06/09 00:46:51;;;;;;;5.40;2.80;;;;;;;16.17;57.69;94610.13;5074098;28;20132;-75
2023/06/09 00:49:16;;;;;;;3.50;2.78;;;;;;;16.23;57.28;94614.69;5090982;28;20429;-75
2023/06/09 00:51:42;;;;;;;3.95;2.58;;;;;;;16.09;57.24;94617.97;5073866;28;20036;-75
2023/06/09 00:54:07;;;;;;;4.72;2.63;;;;;;;15.97;58.02;94617.50;5083585;28;20081;-75
2023/06/09 00:56:34;;;;;;;3.05;2.42;;;;;;;15.93;58.61;94613.56;5077554;28;20608;-75
2023/06/09 00:59:00;;;;;;;3.47;2.78;;;;;;;15.91;58.49;94619.94;5074263;28;20085;-75
2023/06/09 01:01:28;;;;;;;3.92;2.60;;;;;;;16.02;57.90;94622.25;5066617;28;20064;-75
2023/06/09 01:03:54;;;;;;;3.35;2.53;;;;;;;15.68;58.51;94583.09;5066662;28;20032;-75
2023/06/09 01:06:38;;;;;;;4.28;2.63;;;;;;;15.83;58.40;94611.13;5090509;28;20035;-75
2023/06/09 01:09:34;;;;;;;3.83;2.75;;;;;;;15.79;58.55;94606.38;5091811;28;20107;-75
2023/06/09 01:12:02;;;;;;;5.07;3.03;;;;;;;15.83;58.79;94599.84;5066838;28;20040;-75
2023/06/09 01:14:35;;;;;;;4.25;2.30;;;;;;;15.80;58.74;94603.59;5090563;28;20032;-75
2023/06/09 01:17:12;;;;;;;4.53;2.78;;;;;;;15.69;58.75;94601.31;5057584;28;20032;-75
2023/06/09 01:19:48;;;;;;;5.15;2.45;;;;;;;15.70;58.81;94612.59;5053445;28;20469;-75
2023/06/09 01:22:36;;;;;;;4.53;2.50;;;;;;;15.58;58.85;94610.25;5069752;28;20035;-75
2023/06/09 01:25:20;;;;;;;3.95;2.88;;;;;;;15.48;58.80;94609.59;5070198;28;20410;-75
2023/06/09 01:27:46;;;;;;;5.90;2.95;;;;;;;15.45;58.54;94604.69;5073283;28;20060;-75
2023/06/09 01:30:12;;;;;;;3.67;2.60;;;;;;;15.40;58.44;94606.97;5055513;28;20429;-75
2023/06/09 01:32:41;;;;;;;3.33;2.55;;;;;;;15.35;58.45;94610.09;5069997;28;20016;-75
2023/06/09 01:35:07;;;;;;;4.45;2.33;;;;;;;15.44;58.44;94613.53;5070161;28;20051;-75
2023/06/09 01:37:32;;;;;;;3.40;2.55;;;;;;;15.48;58.25;94608.78;5069816;28;20028;-75
2023/06/09 01:39:58;;;;;;;3.20;2.50;;;;;;;15.28;59.14;94618.72;5071200;28;20032;-75
2023/06/09 01:42:24;;;;;;;4.80;2.72;;;;;;;15.29;58.43;94605.47;5090373;28;20032;-75
2023/06/09 01:44:49;;;;;;;3.95;2.50;;;;;;;15.36;58.39;94623.97;5071921;28;20040;-75
2023/06/09 01:47:18;;;;;;;3.25;2.45;;;;;;;15.37;58.21;94623.81;5071148;28;20090;-75
2023/06/09 01:49:58;;;;;;;2.92;2.30;;;;;;;15.06;59.40;94620.13;5086261;28;20048;-75
2023/06/09 01:52:36;;;;;;;5.45;2.70;;;;;;;15.15;58.49;94613.94;5091509;28;20028;-75
2023/06/09 01:55:05;;;;;;;5.00;2.30;;;;;;;15.16;58.75;94619.03;5089182;28;20032;-75
2023/06/09 01:57:36;;;;;;;5.22;2.60;;;;;;;14.98;58.99;94607.84;5068145;28;20016;-75
2023/06/09 02:00:03;;;;;;;3.17;2.27;;;;;;;15.02;60.34;94624.88;5055294;28;20047;-75
2023/06/09 02:02:30;;;;;;;2.85;2.25;;;;;;;15.05;59.62;94618.50;5053968;28;20317;-75
2023/06/09 02:04:56;;;;;;;4.47;2.33;;;;;;;14.87;60.92;94597.69;5036469;28;20094;-75
2023/06/09 02:07:21;;;;;;;4.38;2.75;;;;;;;14.92;61.06;94621.56;5063793;28;20477;-75
2023/06/09 02:09:47;;;;;;;4.15;2.33;;;;;;;14.99;59.80;94619.97;5072848;28;20415;-75
2023/06/09 02:12:12;;;;;;;3.78;2.42;;;;;;;14.87;61.74;94615.97;5072078;28;20101;-75
2023/06/09 02:14:39;;;;;;;3.28;2.40;;;;;;;14.72;61.09;94624.44;5088216;28;20028;-75
2023/06/09 02:17:05;;;;;;;3.97;2.47;;;;;;;14.83;61.32;94619.91;5056106;28;20043;-75
2023/06/09 02:19:37;;;;;;;3.83;2.58;;;;;;;14.83;61.17;94617.28;5069319;28;20052;-75
2023/06/09 02:22:02;;;;;;;3.65;2.70;;;;;;;14.59;60.39;94608.34;5069452;28;20037;-75
2023/06/09 02:24:28;;;;;;;5.60;2.85;;;;;;;14.62;59.90;94621.09;5075061;28;20067;-75
2023/06/09 02:26:57;;;;;;;4.25;2.30;;;;;;;14.65;60.88;94618.19;5088011;28;20028;-74
2023/06/09 02:29:28;;;;;;;5.18;2.53;;;;;;;14.61;59.64;94624.69;5091718;28;20589;-74
2023/06/09 02:31:55;;;;;;;4.13;2.40;;;;;;;14.58;59.29;94606.72;5079599;28;20032;-75
2023/06/09 02:34:22;;;;;;;3.80;2.70;;;;;;;14.66;59.26;94619.03;5073362;28;20110;-75
2023/06/09 02:36:54;;;;;;;3.17;2.28;;;;;;;14.67;58.87;94613.63;5073271;28;20020;-75
2023/06/09 02:39:20;;;;;;;3.42;2.53;;;;;;;14.75;57.86;94618.88;5073300;28;20028;-75
2023/06/09 02:41:46;;;;;;;3.90;2.50;;;;;;;14.62;58.65;94618.50;5089297;28;20032;-75
2023/06/09 02:44:12;;;;;;;4.43;2.28;;;;;;;14.70;58.34;94625.56;5083525;28;20050;-75
2023/06/09 02:46:39;;;;;;;5.32;3.22;;;;;;;14.56;58.64;94619.13;5085164;28;20075;-74
2023/06/09 02:49:04;;;;;;;4.13;2.60;;;;;;;14.59;58.43;94620.59;5093175;28;20048;-75
2023/06/09 02:51:30;;;;;;;4.35;2.40;;;;;;;14.66;58.30;94622.44;5093310;28;20043;-75
2023/06/09 02:53:55;;;;;;;5.35;2.33;;;;;;;14.54;58.41;94621.06;5071652;28;20032;-74
2023/06/09 02:56:21;;;;;;;3.60;2.33;;;;;;;14.61;58.42;94624.69;5073151;28;20395;-75
2023/06/09 02:58:48;;;;;;;3.35;2.33;;;;;;;14.63;58.46;94627.19;5072777;28;20024;-75
2023/06/09 03:01:17;;;;;;;4.15;2.67;;;;;;;14.52;58.57;94617.81;5081204;28;20036;-74
2023/06/09 03:03:46;;;;;;;4.22;2.60;;;;;;;14.55;58.62;94624.53;5073843;28;20029;-74
2023/06/09 03:06:13;;;;;;;6.18;2.60;;;;;;;14.53;58.47;94619.44;5073121;28;20063;-75
2023/06/09 03:08:40;;;;;;;4.55;2.55;;;;;;;14.47;58.72;94614.81;5088034;28;20028;-75
2023/06/09 03:11:05;;;;;;;3.63;2.28;;;;;;;14.46;58.34;94614.00;5073532;28;20036;-74
2023/06/09 03:13:31;;;;;;;3.42;2.63;;;;;;;14.33;58.80;94602.31;5094016;28;20020;-75
2023/06/09 03:15:57;;;;;;;3.30;2.50;;;;;;;14.48;58.68;94605.97;5087889;28;20036;-75
2023/06/09 03:18:22;;;;;;;4.28;2.45;;;;;;;14.42;58.89;94612.66;5073859;28;20032;-74
2023/06/09 03:20:48;;;;;;;3.03;2.38;;;;;;;14.50;58.97;94609.25;5075363;28;20028;-76
2023/06/09 03:23:14;;;;;;;3.47;2.50;;;;;;;14.53;58.63;94603.75;5072302;28;20055;-75
2023/06/09 03:25:40;;;;;;;3.75;2.65;;;;;;;14.50;58.71;94609.25;5073055;28;20090;-75
2023/06/09 03:28:05;;;;;;;3.97;2.50;;;;;;;14.53;58.26;94590.69;5073544;28;20032;-74
2023/06/09 03:30:31;;;;;;;5.03;2.28;;;;;;;14.72;57.93;94595.66;5072435;28;20078;-75
2023/06/09 03:32:56;;;;;;;4.15;2.20;;;;;;;14.74;57.89;94600.75;5074487;28;20032;-75
2023/06/09 03:35:22;;;;;;;4.15;2.60;;;;;;;14.68;58.16;94604.81;5092021;28;20529;-75
2023/06/09 03:37:47;;;;;;;5.28;2.30;;;;;;;14.69;58.22;94609.06;5073913;28;20422;-75
2023/06/09 03:40:15;;;;;;;4.05;2.47;;;;;;;14.67;58.44;94611.00;5089620;28;20051;-74
2023/06/09 03:42:40;;;;;;;4.32;2.40;;;;;;;14.67;58.60;94608.38;5092160;28;20024;-74
2023/06/09 03:45:06;;;;;;;3.35;2.55;;;;;;;14.66;58.59;94617.22;5090196;28;20387;-75
2023/06/09 03:47:32;;;;;;;3.78;2.65;;;;;;;14.56;58.70;94576.50;5090219;28;20047;-75
2023/06/09 03:49:57;;;;;;;3.60;2.40;;;;;;;14.83;58.40;94607.66;5073295;28;20071;-75
2023/06/09 03:52:25;;;;;;;4.07;2.40;;;;;;;14.87;57.98;94588.03;5072179;28;20028;-75
2023/06/09 03:54:51;;;;;;;6.07;2.75;;;;;;;14.99;58.21;94606.88;5072393;28;20055;-75
2023/06/09 03:57:16;;;;;;;3.63;2.47;;;;;;;15.07;57.82;94606.06;5074815;28;20493;-74
2023/06/09 03:59:42;;;;;;;3.97;2.40;;;;;;;14.94;58.13;94593.47;5090013;28;20588;-74
2023/06/09 04:02:07;;;;;;;4.05;2.30;;;;;;;15.13;57.39;94581.91;5071960;28;20039;-74
2023/06/09 04:04:33;;;;;;;4.20;2.47;;;;;;;15.35;58.31;94610.09;5070595;28;20044;-74
2023/06/09 04:06:59;;;;;;;3.17;2.50;;;;;;;15.77;56.94;94627.50;5069968;28;20021;-75
2023/06/09 04:09:25;;;;;;;3.97;2.33;;;;;;;16.78;54.62;94617.53;5071023;28;20551;-75
2023/06/09 04:11:51;;;;;;;3.03;2.40;;;;;;;17.64;52.06;94611.34;5076766;28;20486;-74
2023/06/09 04:14:16;;;;;;;4.47;2.20;;;;;;;18.55;49.75;94617.44;5071998;28;20035;-75
2023/06/09 04:16:41;;;;;;;4.50;2.60;;;;;;;19.37;47.39;94606.78;5084491;28;20490;-74
2023/06/09 04:19:08;;;;;;;3.30;2.40;;;;;;;20.07;45.86;94613.16;5073342;28;20028;-75
2023/06/09 04:21:34;;;;;;;3.30;2.10;;;;;;;20.35;44.46;94599.16;5080212;28;20111;-75
2023/06/09 04:23:59;;;;;;;5.35;2.40;;;;;;;20.68;44.04;94609.16;5072016;28;20484;-75
2023/06/09 04:26:25;;;;;;;4.78;2.30;;;;;;;21.17;43.05;94611.63;5058309;28;20036;-76
2023/06/09 04:28:53;;;;;;;2.58;1.98;;;;;;;21.33;42.78;94621.03;5079116;28;20032;-76
2023/06/09 04:31:23;;;;;;;4.43;2.20;;;;;;;21.00;43.01;94626.16;5093320;28;20118;-77
2023/06/09 04:33:52;;;;;;;2.85;2.20;;;;;;;21.47;42.71;94626.38;5080616;28;20033;-75
2023/06/09 04:36:18;;;;;;;2.92;2.20;;;;;;;21.62;42.08;94627.06;5054734;28;20119;-75
2023/06/09 04:38:45;;;;;;;3.78;2.22;;;;;;;22.24;41.81;94630.41;5071207;28;20032;-75
2023/06/09 04:41:10;;;;;;;3.47;2.20;;;;;;;21.94;41.24;94628.13;5072555;28;20037;-74
2023/06/09 04:43:36;;;;;;;3.20;2.33;;;;;;;21.79;41.88;94625.66;5088474;28;20032;-74
2023/06/09 04:46:05;;;;;;;3.63;2.28;;;;;;;21.62;42.01;94614.66;5055121;28;20063;-74
2023/06/09 04:48:30;;;;;;;3.17;2.00;;;;;;;21.39;42.57;94630.00;5057123;28;20103;-74
2023/06/09 04:51:00;;;;;;;3.25;2.17;;;;;;;21.17;43.05;94624.84;5083307;28;20425;-74
2023/06/09 04:53:26;;;;;;;3.90;2.22;;;;;;;21.36;43.61;94631.19;5078974;28;20035;-74
2023/06/09 04:55:52;;;;;;;3.08;2.22;;;;;;;21.30;43.21;94626.69;5066537;28;20040;-75
2023/06/09 04:58:18;;;;;;;3.30;2.25;;;;;;;21.15;43.48;94629.50;5065192;28;20047;-75
2023/06/09 05:00:43;;;;;;;3.42;2.20;;;;;;;21.01;44.11;94629.66;5084803;28;20126;-74
2023/06/09 05:03:13;;;;;;;3.90;2.65;;;;;;;20.96;44.47;94625.75;5067197;28;20036;-74
2023/06/09 05:05:40;;;;;;;3.63;2.20;;;;;;;21.13;44.19;94625.41;5085802;28;20090;-74
2023/06/09 05:08:05;;;;;;;2.95;2.40;;;;;;;21.24;44.01;94629.34;5065234;28;20942;-74
2023/06/09 05:10:31;;;;;;;3.80;2.30;;;;;;;21.20;43.99;94623.59;5086979;28;20032;-74
2023/06/09 05:12:56;;;;;;;3.42;2.20;;;;;;;21.11;43.95;94619.50;5081505;28;20385;-74
2023/06/09 05:15:23;;;;;;;3.40;2.33;;;;;;;21.34;44.41;94632.41;5080804;28;20043;-74
2023/06/09 05:17:49;;;;;;;3.05;2.10;;;;;;;21.50;43.89;94629.44;5050249;28;20028;-74
2023/06/09 05:20:15;;;;;;;5.20;2.45;;;;;;;21.42;43.58;94630.44;5069651;28;20055;-74
2023/06/09 05:22:41;;;;;;;4.93;2.90;;;;;;;21.35;43.33;94632.22;5077905;28;20471;-74
2023/06/09 05:25:10;;;;;;;6.40;3.30;;;;;;;21.33;43.79;94626.31;5086498;28;20063;-83
2023/06/09 05:27:36;;;;;;;7.05;2.83;;;;;;;21.33;43.40;94618.38;5084816;28;20489;-83
2023/06/09 05:30:01;;;;;;;7.15;2.67;;;;;;;21.23;43.26;94623.25;5069555;28;20043;-83
2023/06/09 05:32:27;;;;;;;6.75;2.80;;;;;;;21.31;43.21;94616.94;5082814;28;20020;-83
2023/06/09 05:34:52;;;;;;;3.53;2.70;;;;;;;21.23;43.97;94617.97;5067251;28;20429;-83
2023/06/09 05:37:18;;;;;;;7.45;2.85;;;;;;;21.08;44.64;94609.34;5096138;28;20497;-82
2023/06/09 05:39:44;;;;;;;7.50;3.30;;;;;;;20.99;44.22;94613.97;5056152;28;20040;-83
2023/06/09 05:42:09;;;;;;;4.70;2.70;;;;;;;21.44;43.32;94618.88;5081321;28;20115;-84
2023/06/09 05:44:35;;;;;;;6.88;3.10;;;;;;;21.53;43.58;94620.31;5078018;28;20032;-83
2023/06/09 05:47:00;;;;;;;7.30;2.95;;;;;;;21.63;43.36;94612.81;5061813;28;20104;-82
2023/06/09 05:49:26;;;;;;;5.00;2.75;;;;;;;21.66;43.16;94623.00;5077752;28;20506;-84
2023/06/09 05:51:51;;;;;;;4.60;2.80;;;;;;;21.62;43.44;94603.28;5065944;28;20082;-84
2023/06/09 05:54:18;;;;;;;6.47;3.45;;;;;;;21.37;43.03;94618.84;5085861;28;20024;-83
2023/06/09 05:56:44;;;;;;;6.47;3.10;;;;;;;21.00;43.78;94602.41;5084316;28;20587;-82
2023/06/09 05:59:10;;;;;;;5.60;3.00;;;;;;;21.31;43.99;94615.16;5086353;28;20115;-78
2023/06/09 06:01:36;;;;;;;6.30;3.20;;;;;;;21.12;44.96;94613.25;5069216;28;20130;-79
2023/06/09 06:04:02;;;;;;;6.65;3.40;;;;;;;20.80;44.37;94604.94;5082989;28;20024;-79
2023/06/09 06:06:27;;;;;;;7.70;2.90;;;;;;;21.06;43.86;94612.19;5085335;28;20439;-79
2023/06/09 06:08:53;;;;;;;4.63;3.20;;;;;;;21.21;43.87;94614.69;5086736;28;20036;-80
2023/06/09 06:11:18;;;;;;;7.47;3.25;;;;;;;21.06;43.87;94611.34;5053547;28;20029;-79
2023/06/09 06:13:44;;;;;;;4.00;2.70;;;;;;;20.89;45.74;94609.03;5053103;28;20520;-79
2023/06/09 06:16:09;;;;;;;4.15;2.75;;;;;;;21.22;44.47;94604.94;5087043;28;20024;-79
2023/06/09 06:18:35;;;;;;;6.07;2.92;;;;;;;21.67;44.16;94597.38;5084416;28;20482;-79
2023/06/09 06:21:00;;;;;;;4.85;3.17;;;;;;;21.66;42.94;94593.91;5084952;28;20043;-79
2023/06/09 06:23:26;;;;;;;6.53;2.70;;;;;;;21.81;43.13;94588.44;5068429;28;20028;-79
2023/06/09 06:25:52;;;;;;;5.82;2.70;;;;;;;21.94;43.15;94587.66;5067539;28;20044;-79
2023/06/09 06:28:18;;;;;;;10.50;2.80;;;;;;;21.62;43.75;94595.34;5085694;28;20036;-79
2023/06/09 06:30:44;;;;;;;6.60;2.75;;;;;;;21.91;44.19;94594.16;5063166;28;20475;-80
2023/06/09 06:33:09;;;;;;;6.60;3.10;;;;;;;21.55;43.87;94589.22;5083939;28;20043;-79
2023/06/09 06:35:35;;;;;;;5.47;2.97;;;;;;;21.53;45.18;94596.53;5086046;28;20115;-79
2023/06/09 06:38:00;;;;;;;6.22;3.13;;;;;;;21.12;44.70;94587.63;5065693;28;20510;-79
2023/06/09 06:40:26;;;;;;;7.80;3.10;;;;;;;21.55;45.07;94589.22;5084646;28;20032;-79
2023/06/09 06:42:51;;;;;;;8.45;3.47;;;;;;;21.79;45.10;94585.19;5051696;28;20028;-80
2023/06/09 06:45:17;;;;;;;7.60;3.30;;;;;;;21.66;45.40;94585.19;5085402;28;20117;-79
2023/06/09 06:47:45;;;;;;;6.18;3.25;;;;;;;21.95;44.93;94591.91;5081821;28;20542;-81
2023/06/09 06:50:13;;;;;;;5.55;3.15;;;;;;;21.99;44.39;94579.91;5049120;28;20048;-80
2023/06/09 06:52:38;;;;;;;6.63;3.22;;;;;;;22.09;44.42;94577.66;5052128;28;20051;-80
2023/06/09 06:55:08;;;;;;;8.10;2.70;;;;;;;22.22;44.62;94580.34;5078552;28;20131;-79
2023/06/09 06:57:37;;;;;;;8.38;3.00;;;;;;;22.61;43.41;94577.84;5082297;28;20028;-80
2023/06/09 07:00:12;;;;;;;4.32;2.78;;;;;;;22.80;43.57;94577.00;5086493;28;20040;-80
2023/06/09 07:02:38;;;;;;;5.82;2.95;;;;;;;22.81;43.84;94577.81;5084010;28;20035;-79
2023/06/09 07:05:03;;;;;;;8.38;3.15;;;;;;;22.53;43.89;94582.34;5065183;28;20040;-80
2023/06/09 07:07:29;;;;;;;6.03;3.10;;;;;;;22.84;43.82;94582.69;5080938;28;20024;-79
2023/06/09 07:09:54;;;;;;;8.07;3.10;;;;;;;23.04;42.93;94580.84;5085190;28;20452;-79
2023/06/09 07:12:21;;;;;;;8.35;3.53;;;;;;;22.87;43.05;94574.31;5087364;28;20032;-79
2023/06/09 07:14:47;;;;;;;11.70;3.20;;;;;;;22.86;42.95;94578.00;5066407;28;20033;-85
2023/06/09 07:17:12;;;;;;;6.55;3.05;;;;;;;23.09;42.42;94575.69;5087356;28;20111;-80
2023/06/09 07:19:37;;;;;;;6.68;3.22;;;;;;;22.84;43.29;94582.69;5089698;28;20036;-84
2023/06/09 07:22:03;;;;;;;8.05;3.35;;;;;;;22.97;43.51;94572.09;5084505;28;20475;-85
2023/06/09 07:24:30;;;;;;;7.45;2.95;;;;;;;23.02;43.90;94580.22;5070369;28;20086;-85
2023/06/09 07:26:56;;;;;;;5.63;3.05;;;;;;;23.01;42.01;94567.97;5070650;28;20133;-83
2023/06/09 07:29:21;;;;;;;5.88;3.00;;;;;;;23.25;42.04;94565.66;5071636;28;20406;-79
2023/06/09 07:31:47;;;;;;;6.88;2.90;;;;;;;23.25;41.86;94577.06;5089073;28;20024;-82
2023/06/09 07:34:12;;;;;;;8.02;3.05;;;;;;;23.33;41.51;94576.00;5088838;28;20059;-80
2023/06/09 07:36:40;;;;;;;6.97;2.95;;;;;;;23.60;41.50;94560.78;5085817;28;20482;-84
2023/06/09 07:39:06;;;;;;;8.60;3.50;;;;;;;23.58;41.55;94571.59;5090416;28;20036;-85
2023/06/09 07:41:31;;;;;;;9.70;3.03;;;;;;;23.44;41.68;94572.69;5087573;28;20044;-86
2023/06/09 07:43:57;;;;;;;3.97;2.70;;;;;;;23.36;42.06;94573.75;5089632;28;20323;-83
2023/06/09 07:46:23;;;;;;;3.75;2.85;;;;;;;23.45;42.55;94573.50;5089023;28;20106;-82
2023/06/09 07:48:49;;;;;;;5.32;2.80;;;;;;;23.61;42.24;94575.66;5087259;28;20474;-83
2023/06/09 07:51:18;;;;;;;5.03;2.88;;;;;;;23.81;41.52;94557.78;5067409;28;20033;-80
2023/06/09 07:53:43;;;;;;;6.20;3.05;;;;;;;24.18;42.35;94575.69;5088755;28;20067;-84
2023/06/09 07:56:09;;;;;;;5.78;2.80;;;;;;;24.17;41.12;94576.72;5081950;28;20072;-78
2023/06/09 07:58:36;;;;;;;4.47;3.20;;;;;;;23.97;43.10;94572.38;5087433;28;20039;-79
2023/06/09 08:01:02;;;;;;;9.55;3.13;;;;;;;23.60;43.04;94561.59;5086999;28;20512;-82
2023/06/09 08:03:29;;;;;;;5.78;3.00;;;;;;;23.99;41.62;94570.31;5082983;28;20111;-80
2023/06/09 08:05:55;;;;;;;6.30;2.88;;;;;;;24.24;41.22;94577.47;5090022;28;20044;-82
2023/06/09 08:08:20;;;;;;;8.23;3.30;;;;;;;24.50;41.51;94569.28;5069494;28;20505;-80
2023/06/09 08:10:46;;;;;;;4.78;2.80;;;;;;;24.61;41.64;94569.63;5089831;28;20036;-84
2023/06/09 08:13:15;;;;;;;8.85;3.10;;;;;;;24.48;40.29;94560.72;5065512;28;20036;-84
2023/06/09 08:15:40;;;;;;;7.03;3.03;;;;;;;24.66;41.20;94561.81;5089496;28;20040;-81
2023/06/09 08:18:06;;;;;;;4.28;3.15;;;;;;;24.56;40.81;94550.88;5087074;28;20075;-78
2023/06/09 08:20:31;;;;;;;4.82;3.17;;;;;;;24.74;40.69;94557.00;5088215;28;20032;-83
2023/06/09 08:22:57;;;;;;;4.68;3.10;;;;;;;24.52;40.63;94555.81;5090252;28;20039;-81
2023/06/09 08:25:24;;;;;;;5.68;3.25;;;;;;;24.74;39.98;94549.03;5088674;28;20036;-84
2023/06/09 08:27:49;;;;;;;7.10;2.90;;;;;;;25.06;39.87;94553.38;5086253;28;20020;-82
2023/06/09 08:30:15;;;;;;;7.03;3.05;;;;;;;24.91;40.35;94541.28;5088775;28;20072;-81
2023/06/09 08:32:40;;;;;;;4.30;2.88;;;;;;;25.06;41.46;94554.19;5088511;28;20020;-82
2023/06/09 08:35:07;;;;;;;6.88;3.10;;;;;;;24.95;40.06;94541.66;5090596;28;20059;-83
2023/06/09 08:37:32;;;;;;;6.50;2.90;;;;;;;24.74;39.80;94519.03;5068301;28;20024;-83
2023/06/09 08:40:00;;;;;;;6.85;3.25;;;;;;;24.95;40.57;94545.13;5083470;28;20097;-82
2023/06/09 08:42:26;;;;;;;4.88;2.92;;;;;;;24.94;40.82;94530.22;5070763;28;20028;-84
2023/06/09 08:45:02;;;;;;;6.75;2.95;;;;;;;24.64;39.53;94514.22;5089880;28;20039;-86
2023/06/09 08:47:28;;;;;;;3.97;3.10;;;;;;;25.04;40.52;94539.50;5070801;28;20029;-80
2023/06/09 08:49:57;;;;;;;4.22;2.92;;;;;;;25.44;39.59;94537.19;5086764;28;20148;-83
2023/06/09 08:52:26;;;;;;;8.45;3.30;;;;;;;25.44;41.04;94539.03;5064570;28;20098;-80
2023/06/09 08:54:53;;;;;;;7.22;3.10;;;;;;;25.36;39.62;94532.97;5087748;28;20028;-80
2023/06/09 08:57:18;;;;;;;13.10;3.25;;;;;;;25.28;39.33;94532.50;5066247;28;20329;-86
2023/06/09 08:59:46;;;;;;;4.43;3.05;;;;;;;25.40;38.91;94525.34;5085987;28;20075;-83
2023/06/09 09:02:11;;;;;;;3.80;3.08;;;;;;;25.68;39.26;94522.09;5048039;28;20038;-83
2023/06/09 09:04:38;;;;;;;4.93;3.20;;;;;;;25.56;38.89;94529.25;5069847;28;20032;-80
2023/06/09 09:07:05;;;;;;;3.20;2.70;;;;;;;25.89;38.19;94527.97;5073941;28;20036;-81
2023/06/09 09:09:31;;;;;;;4.35;2.92;;;;;;;26.02;37.50;94515.25;5052033;28;20033;-82
2023/06/09 09:12:00;;;;;;;4.22;2.70;;;;;;;25.84;38.67;94524.13;5068902;28;20072;-80
2023/06/09 09:14:25;;;;;;;4.28;3.00;;;;;;;25.80;38.33;94511.50;5063593;28;20523;-81
2023/06/09 09:16:50;;;;;;;7.10;2.88;;;;;;;25.70;39.08;94520.03;5064567;28;20029;-81
2023/06/09 09:19:29;;;;;;;3.53;2.65;;;;;;;25.63;38.51;94506.00;5054377;28;20031;-81
2023/06/09 09:22:02;;;;;;;4.45;3.00;;;;;;;25.91;38.93;94509.91;5052174;28;20043;-80
2023/06/09 09:24:29;;;;;;;4.82;2.70;;;;;;;26.07;37.12;94506.56;5035746;28;20036;-80
2023/06/09 09:26:58;;;;;;;5.38;2.78;;;;;;;26.10;37.61;94510.63;5037184;28;20457;-79
2023/06/09 09:29:28;;;;;;;3.95;2.60;;;;;;;26.16;37.67;94499.88;5052860;28;20066;-81
2023/06/09 09:32:01;;;;;;;3.50;2.87;;;;;;;26.42;38.19;94501.25;5069631;28;20040;-80
2023/06/09 09:34:27;;;;;;;5.80;2.85;;;;;;;26.48;38.19;94502.16;5075857;28;20318;-81
2023/06/09 09:36:55;;;;;;;3.40;2.90;;;;;;;26.50;37.42;94492.09;5051993;28;20072;-80
2023/06/09 09:39:22;;;;;;;4.32;2.70;;;;;;;26.44;36.99;94503.66;5073468;28;20027;-78
2023/06/09 09:42:10;;;;;;;4.03;2.58;;;;;;;26.56;36.31;94493.06;5071498;28;20062;-78
2023/06/09 09:44:39;;;;;;;4.40;2.92;;;;;;;26.27;36.36;94491.09;5072841;28;20289;-78
2023/06/09 09:47:06;;;;;;;4.00;2.63;;;;;;;26.51;35.75;94497.22;5085083;28;20032;-81
2023/06/09 09:49:31;;;;;;;6.45;2.92;;;;;;;26.53;36.66;94489.00;5069936;28;20132;-78
2023/06/09 09:51:58;;;;;;;4.25;2.75;;;;;;;26.29;36.85;94477.53;5069898;28;20041;-78
2023/06/09 09:54:26;;;;;;;5.07;2.83;;;;;;;26.42;36.39;94484.47;5053148;28;20032;-78
2023/06/09 09:56:51;;;;;;;4.00;3.25;;;;;;;26.47;37.04;94472.06;5053040;28;20029;-78
2023/06/09 09:59:17;;;;;;;5.15;2.92;;;;;;;26.80;37.22;94478.66;5036261;28;20490;-78
2023/06/09 10:01:42;;;;;;;5.03;2.55;;;;;;;27.04;36.63;94475.91;5052794;28;20037;-79
2023/06/09 10:04:08;;;;;;;5.57;2.75;;;;;;;27.29;35.90;94486.25;5052916;28;20032;-78
2023/06/09 10:06:33;;;;;;;3.33;2.80;;;;;;;26.92;36.79;94478.59;5071302;28;20044;-78
2023/06/09 10:08:59;;;;;;;4.70;2.90;;;;;;;26.60;36.53;94475.53;5069900;28;20032;-78
2023/06/09 10:11:29;;;;;;;3.80;2.63;;;;;;;26.84;36.48;94478.97;5042121;28;20105;-79
2023/06/09 10:13:54;;;;;;;4.30;2.83;;;;;;;25.71;37.91;94481.72;5084634;28;20036;-76
2023/06/09 10:16:20;;;;;;;4.82;2.70;;;;;;;26.21;36.81;94470.69;5053001;28;20474;-79
2023/06/09 10:18:46;;;;;;;4.25;2.55;;;;;;;26.18;36.89;94473.81;5053046;28;20517;-79
2023/06/09 10:21:12;;;;;;;8.27;2.53;;;;;;;26.32;36.88;94476.25;5072303;28;20040;-79
2023/06/09 10:23:38;;;;;;;7.43;2.70;;;;;;;26.36;36.80;94470.25;5081925;28;20032;-81
2023/06/09 10:26:03;;;;;;;5.20;2.58;;;;;;;26.18;35.33;94465.84;5045285;28;20039;-79
2023/06/09 10:28:29;;;;;;;4.18;2.58;;;;;;;26.14;34.60;94464.69;5055674;28;20037;-81
2023/06/09 10:30:54;;;;;;;5.53;2.88;;;;;;;26.13;36.04;94465.72;5083126;28;20033;-80
2023/06/09 10:33:27;;;;;;;4.15;2.50;;;;;;;26.35;34.51;94459.81;5078352;28;20085;-82
2023/06/09 10:36:00;;;;;;;3.42;2.50;;;;;;;26.62;33.84;94455.63;5068088;28;20035;-80
2023/06/09 10:38:28;;;;;;;3.65;2.60;;;;;;;26.84;33.30;94463.00;5067526;28;20031;-80
2023/06/09 10:41:03;;;;;;;3.53;2.67;;;;;;;26.54;34.88;94466.66;5080716;28;20039;-80
2023/06/09 10:43:35;;;;;;;4.55;2.50;;;;;;;26.72;33.47;94460.38;5081099;28;20051;-80
2023/06/09 10:46:00;;;;;;;5.95;2.60;;;;;;;26.44;33.61;94463.72;5083916;28;20067;-80
2023/06/09 10:48:51;;;;;;;5.13;2.78;;;;;;;26.25;34.23;94455.88;5062344;28;20417;-81
2023/06/09 10:51:35;;;;;;;;;;;;;;;26.43;34.67;94457.59;5081984;28;20058;-81
2023/06/09 10:54:07;;;;;;;6.05;2.90;;;;;;;26.22;36.38;94456.38;5084766;28;19916;-80
2023/06/09 10:56:36;;;;;;;7.20;2.70;;;;;;;25.77;35.02;94453.41;5084370;28;20085;-81
2023/06/09 10:59:02;;;;;;;5.93;2.50;;;;;;;26.11;34.67;94443.88;5082988;28;20475;-80
2023/06/09 11:01:28;;;;;;;4.90;2.65;;;;;;;26.33;35.26;94435.25;5055944;28;20103;-79
2023/06/09 11:03:53;;;;;;;6.10;3.47;;;;;;;26.44;35.64;94431.78;5088936;28;20524;-79
2023/06/09 11:06:19;;;;;;;3.90;2.45;;;;;;;26.40;34.56;94435.97;5090399;28;20036;-79
2023/06/09 11:09:00;;;;;;;4.43;3.08;;;;;;;26.36;36.56;94437.50;5070271;28;20487;-78
2023/06/09 11:11:51;;;;;;;4.40;2.72;;;;;;;26.26;35.50;94430.06;5091819;28;20024;-78
2023/06/09 11:14:44;;;;;;;5.63;2.55;;;;;;;26.20;35.88;94425.69;5088288;28;20031;-78
2023/06/09 11:17:17;;;;;;;4.68;3.03;;;;;;;26.28;34.25;94430.66;5090619;28;20062;-78
2023/06/09 11:19:42;;;;;;;3.78;2.90;;;;;;;26.33;34.63;94429.94;5084993;28;20090;-79
2023/06/09 11:22:08;;;;;;;6.13;3.20;;;;;;;26.32;34.40;94423.81;5057539;28;20036;-80
2023/06/09 11:24:49;;;;;;;4.30;2.90;;;;;;;26.64;34.24;94416.25;5068900;28;20028;-79
2023/06/09 11:27:22;;;;;;;5.53;2.92;;;;;;;26.60;35.23;94420.44;5088494;28;20032;-78
2023/06/09 11:30:11;;;;;;;4.55;2.85;;;;;;;26.79;34.48;94420.25;5083284;28;20025;-81
2023/06/09 11:32:49;;;;;;;6.77;3.20;;;;;;;26.76;34.31;94415.41;5089639;28;20490;-79
2023/06/09 11:35:29;;;;;;;4.03;2.88;;;;;;;26.67;34.59;94405.13;5090722;28;20215;-80